Terminal Aerodrome Forecast
Issued by NWS St Louis, MO

Home | Current Version | Previous Version | Text Only | Print | Product List | Glossary On
Versions: 1 2 3 4 5 6 7 8 9 10 11 12 13 14 15 16 17 18 19 20 21 22 23 24
575
FTUS43 KLSX 111125
TAFSTL
TAF
KSTL 111125Z 1112/1218 19005KT P6SM FEW150
     FM111600 21010KT P6SM SCT150
     FM111900 25015G24KT P6SM SCT150
     FM112200 30014G28KT P6SM BKN045
     FM120400 32015G27KT P6SM OVC025
     FM120800 32014G24KT P6SM SCT025
     FM121400 32008KT P6SM FEW250=

USA.gov is the U.S. government's official web portal to all federal, state and local government web resources and services.